sensor_id;sensor_type;location;lat;lon;timestamp;P1;durP1;ratioP1;P2;durP2;ratioP2
64011;SDS011;50211;52.768;12.124;2023-04-01T00:02:16;3.22;;;1.90;;
64011;SDS011;50211;52.768;12.124;2023-04-01T00:04:42;5.00;;;1.98;;
64011;SDS011;50211;52.768;12.124;2023-04-01T00:07:08;4.28;;;2.00;;
64011;SDS011;50211;52.768;12.124;2023-04-01T00:09:34;4.10;;;2.43;;
64011;SDS011;50211;52.768;12.124;2023-04-01T00:12:00;2.72;;;2.22;;
64011;SDS011;50211;52.768;12.124;2023-04-01T00:14:26;4.72;;;1.85;;
64011;SDS011;50211;52.768;12.124;2023-04-01T00:16:51;6.28;;;2.55;;
64011;SDS011;50211;52.768;12.124;2023-04-01T00:19:17;8.23;;;2.20;;
64011;SDS011;50211;52.768;12.124;2023-04-01T00:21:43;3.27;;;2.27;;
64011;SDS011;50211;52.768;12.124;2023-04-01T00:24:09;2.87;;;1.80;;
64011;SDS011;50211;52.768;12.124;2023-04-01T00:26:34;7.27;;;2.40;;
64011;SDS011;50211;52.768;12.124;2023-04-01T00:29:00;6.53;;;2.30;;
64011;SDS011;50211;52.768;12.124;2023-04-01T00:31:26;6.13;;;2.20;;
64011;SDS011;50211;52.768;12.124;2023-04-01T00:33:52;4.57;;;1.97;;
64011;SDS011;50211;52.768;12.124;2023-04-01T00:36:18;6.37;;;2.27;;
64011;SDS011;50211;52.768;12.124;2023-04-01T00:38:46;3.87;;;1.90;;
64011;SDS011;50211;52.768;12.124;2023-04-01T00:41:12;5.07;;;2.33;;
64011;SDS011;50211;52.768;12.124;2023-04-01T00:43:40;8.33;;;2.23;;
64011;SDS011;50211;52.768;12.124;2023-04-01T00:46:06;3.03;;;2.08;;
64011;SDS011;50211;52.768;12.124;2023-04-01T00:48:54;5.25;;;2.05;;
64011;SDS011;50211;52.768;12.124;2023-04-01T00:51:21;4.70;;;1.65;;
64011;SDS011;50211;52.768;12.124;2023-04-01T00:53:51;6.83;;;1.90;;
64011;SDS011;50211;52.768;12.124;2023-04-01T00:56:19;5.70;;;2.22;;
64011;SDS011;50211;52.768;12.124;2023-04-01T00:58:54;4.60;;;2.23;;
64011;SDS011;50211;52.768;12.124;2023-04-01T01:01:25;3.77;;;1.70;;
64011;SDS011;50211;52.768;12.124;2023-04-01T01:03:51;4.07;;;2.10;;
64011;SDS011;50211;52.768;12.124;2023-04-01T01:06:19;8.40;;;2.30;;
64011;SDS011;50211;52.768;12.124;2023-04-01T01:11:59;4.40;;;1.57;;
64011;SDS011;50211;52.768;12.124;2023-04-01T01:17:14;4.07;;;1.80;;
64011;SDS011;50211;52.768;12.124;2023-04-01T01:20:04;3.50;;;1.93;;
64011;SDS011;50211;52.768;12.124;2023-04-01T01:31:21;4.23;;;1.83;;
64011;SDS011;50211;52.768;12.124;2023-04-01T01:34:01;2.67;;;1.70;;
64011;SDS011;50211;52.768;12.124;2023-04-01T01:36:48;3.33;;;1.77;;
64011;SDS011;50211;52.768;12.124;2023-04-01T01:39:23;2.92;;;1.52;;
64011;SDS011;50211;52.768;12.124;2023-04-01T01:41:54;3.75;;;1.90;;
64011;SDS011;50211;52.768;12.124;2023-04-01T01:44:22;3.22;;;1.90;;
64011;SDS011;50211;52.768;12.124;2023-04-01T01:46:49;10.02;;;1.70;;
64011;SDS011;50211;52.768;12.124;2023-04-01T01:49:15;3.07;;;1.40;;
64011;SDS011;50211;52.768;12.124;2023-04-01T01:51:42;5.30;;;1.95;;
64011;SDS011;50211;52.768;12.124;2023-04-01T01:54:11;2.10;;;1.50;;
64011;SDS011;50211;52.768;12.124;2023-04-01T01:56:38;2.97;;;1.80;;
64011;SDS011;50211;52.768;12.124;2023-04-01T01:59:05;2.28;;;1.50;;
64011;SDS011;50211;52.768;12.124;2023-04-01T02:01:35;2.67;;;1.50;;
64011;SDS011;50211;52.768;12.124;2023-04-01T02:04:04;2.40;;;1.70;;
64011;SDS011;50211;52.768;12.124;2023-04-01T02:06:30;7.47;;;1.67;;
64011;SDS011;50211;52.768;12.124;2023-04-01T02:09:00;4.43;;;1.40;;
64011;SDS011;50211;52.768;12.124;2023-04-01T02:11:34;5.05;;;1.50;;
64011;SDS011;50211;52.768;12.124;2023-04-01T02:14:13;4.35;;;1.45;;
64011;SDS011;50211;52.768;12.124;2023-04-01T02:19:15;3.93;;;2.07;;
64011;SDS011;50211;52.768;12.124;2023-04-01T02:21:47;5.68;;;1.88;;
64011;SDS011;50211;52.768;12.124;2023-04-01T02:24:16;3.73;;;2.00;;
64011;SDS011;50211;52.768;12.124;2023-04-01T02:26:46;2.60;;;1.50;;
64011;SDS011;50211;52.768;12.124;2023-04-01T02:29:12;5.28;;;2.10;;
64011;SDS011;50211;52.768;12.124;2023-04-01T02:31:38;3.83;;;1.87;;
64011;SDS011;50211;52.768;12.124;2023-04-01T02:34:04;2.38;;;1.50;;
64011;SDS011;50211;52.768;12.124;2023-04-01T02:36:30;3.83;;;1.90;;
64011;SDS011;50211;52.768;12.124;2023-04-01T02:38:57;3.67;;;1.60;;
64011;SDS011;50211;52.768;12.124;2023-04-01T02:41:27;3.97;;;1.52;;
64011;SDS011;50211;52.768;12.124;2023-04-01T02:43:53;2.35;;;1.70;;
64011;SDS011;50211;52.768;12.124;2023-04-01T02:46:18;3.58;;;1.58;;
64011;SDS011;50211;52.768;12.124;2023-04-01T02:48:44;3.53;;;1.70;;
64011;SDS011;50211;52.768;12.124;2023-04-01T02:51:10;4.95;;;3.30;;
64011;SDS011;50211;52.768;12.124;2023-04-01T02:53:35;4.33;;;1.67;;
64011;SDS011;50211;52.768;12.124;2023-04-01T02:56:01;3.17;;;1.83;;
64011;SDS011;50211;52.768;12.124;2023-04-01T02:58:26;4.22;;;1.77;;
64011;SDS011;50211;52.768;12.124;2023-04-01T03:00:52;2.43;;;1.50;;
64011;SDS011;50211;52.768;12.124;2023-04-01T03:03:17;1.73;;;1.17;;
64011;SDS011;50211;52.768;12.124;2023-04-01T03:05:43;3.03;;;1.83;;
64011;SDS011;50211;52.768;12.124;2023-04-01T03:08:08;3.10;;;1.42;;
64011;SDS011;50211;52.768;12.124;2023-04-01T03:10:34;2.87;;;1.40;;
64011;SDS011;50211;52.768;12.124;2023-04-01T03:12:59;4.80;;;1.77;;
64011;SDS011;50211;52.768;12.124;2023-04-01T03:15:25;2.60;;;1.48;;
64011;SDS011;50211;52.768;12.124;2023-04-01T03:17:50;2.77;;;1.70;;
64011;SDS011;50211;52.768;12.124;2023-04-01T03:20:16;3.70;;;1.60;;
64011;SDS011;50211;52.768;12.124;2023-04-01T03:22:42;3.83;;;1.60;;
64011;SDS011;50211;52.768;12.124;2023-04-01T03:25:07;6.50;;;1.48;;
64011;SDS011;50211;52.768;12.124;2023-04-01T03:27:33;2.37;;;1.90;;
64011;SDS011;50211;52.768;12.124;2023-04-01T03:30:00;3.90;;;1.85;;
64011;SDS011;50211;52.768;12.124;2023-04-01T03:32:27;3.80;;;1.58;;
64011;SDS011;50211;52.768;12.124;2023-04-01T03:34:53;3.55;;;1.75;;
64011;SDS011;50211;52.768;12.124;2023-04-01T03:37:19;3.50;;;1.50;;
64011;SDS011;50211;52.768;12.124;2023-04-01T03:39:44;2.38;;;1.50;;
64011;SDS011;50211;52.768;12.124;2023-04-01T03:42:10;4.95;;;1.70;;
64011;SDS011;50211;52.768;12.124;2023-04-01T03:44:36;4.63;;;2.10;;
64011;SDS011;50211;52.768;12.124;2023-04-01T03:47:02;4.37;;;1.90;;
64011;SDS011;50211;52.768;12.124;2023-04-01T03:49:27;4.90;;;2.25;;
64011;SDS011;50211;52.768;12.124;2023-04-01T03:51:53;4.97;;;1.67;;
64011;SDS011;50211;52.768;12.124;2023-04-01T03:54:18;3.10;;;1.63;;
64011;SDS011;50211;52.768;12.124;2023-04-01T03:56:45;4.37;;;1.77;;
64011;SDS011;50211;52.768;12.124;2023-04-01T03:59:11;3.03;;;1.47;;
64011;SDS011;50211;52.768;12.124;2023-04-01T04:01:36;8.90;;;2.08;;
64011;SDS011;50211;52.768;12.124;2023-04-01T04:04:02;6.78;;;2.28;;
64011;SDS011;50211;52.768;12.124;2023-04-01T04:06:28;5.50;;;1.63;;
64011;SDS011;50211;52.768;12.124;2023-04-01T04:08:53;4.67;;;1.90;;
64011;SDS011;50211;52.768;12.124;2023-04-01T04:11:19;5.13;;;1.58;;
64011;SDS011;50211;52.768;12.124;2023-04-01T04:13:46;6.38;;;1.45;;
64011;SDS011;50211;52.768;12.124;2023-04-01T04:16:16;7.23;;;2.00;;
64011;SDS011;50211;52.768;12.124;2023-04-01T04:18:41;3.70;;;1.48;;
64011;SDS011;50211;52.768;12.124;2023-04-01T04:21:10;4.67;;;1.80;;
64011;SDS011;50211;52.768;12.124;2023-04-01T04:23:37;4.57;;;1.60;;
64011;SDS011;50211;52.768;12.124;2023-04-01T04:26:04;3.03;;;1.77;;
64011;SDS011;50211;52.768;12.124;2023-04-01T04:28:31;4.97;;;1.67;;
64011;SDS011;50211;52.768;12.124;2023-04-01T04:30:58;3.40;;;1.77;;
64011;SDS011;50211;52.768;12.124;2023-04-01T04:33:24;3.13;;;1.60;;
64011;SDS011;50211;52.768;12.124;2023-04-01T04:35:50;6.77;;;1.90;;
64011;SDS011;50211;52.768;12.124;2023-04-01T04:38:17;6.27;;;2.10;;
64011;SDS011;50211;52.768;12.124;2023-04-01T04:40:42;3.73;;;1.70;;
64011;SDS011;50211;52.768;12.124;2023-04-01T04:43:12;6.60;;;1.90;;
64011;SDS011;50211;52.768;12.124;2023-04-01T04:45:38;4.73;;;2.30;;
64011;SDS011;50211;52.768;12.124;2023-04-01T04:48:04;6.77;;;1.97;;
64011;SDS011;50211;52.768;12.124;2023-04-01T04:50:30;4.07;;;1.70;;
64011;SDS011;50211;52.768;12.124;2023-04-01T04:52:56;6.90;;;2.07;;
64011;SDS011;50211;52.768;12.124;2023-04-01T04:55:21;7.53;;;2.03;;
64011;SDS011;50211;52.768;12.124;2023-04-01T04:57:46;4.83;;;2.10;;
64011;SDS011;50211;52.768;12.124;2023-04-01T05:00:12;4.60;;;2.25;;
64011;SDS011;50211;52.768;12.124;2023-04-01T05:02:38;6.23;;;2.60;;
64011;SDS011;50211;52.768;12.124;2023-04-01T05:05:03;5.27;;;2.27;;
64011;SDS011;50211;52.768;12.124;2023-04-01T05:07:29;2.57;;;1.97;;
64011;SDS011;50211;52.768;12.124;2023-04-01T05:09:55;3.80;;;2.30;;
64011;SDS011;50211;52.768;12.124;2023-04-01T05:12:20;4.93;;;2.00;;
64011;SDS011;50211;52.768;12.124;2023-04-01T05:14:46;4.93;;;2.73;;
64011;SDS011;50211;52.768;12.124;2023-04-01T05:17:12;3.90;;;2.17;;
64011;SDS011;50211;52.768;12.124;2023-04-01T05:19:38;5.13;;;2.60;;
64011;SDS011;50211;52.768;12.124;2023-04-01T05:22:04;6.93;;;2.43;;
64011;SDS011;50211;52.768;12.124;2023-04-01T05:24:30;5.93;;;2.17;;
64011;SDS011;50211;52.768;12.124;2023-04-01T05:26:57;5.37;;;2.20;;
64011;SDS011;50211;52.768;12.124;2023-04-01T05:29:23;4.83;;;2.40;;
64011;SDS011;50211;52.768;12.124;2023-04-01T05:31:50;5.30;;;2.78;;
64011;SDS011;50211;52.768;12.124;2023-04-01T05:34:15;6.03;;;2.70;;
64011;SDS011;50211;52.768;12.124;2023-04-01T05:36:41;5.15;;;2.63;;
64011;SDS011;50211;52.768;12.124;2023-04-01T05:39:07;5.90;;;2.40;;
64011;SDS011;50211;52.768;12.124;2023-04-01T05:41:36;8.70;;;2.40;;
64011;SDS011;50211;52.768;12.124;2023-04-01T05:44:02;7.93;;;2.47;;
64011;SDS011;50211;52.768;12.124;2023-04-01T05:46:28;8.87;;;3.00;;
64011;SDS011;50211;52.768;12.124;2023-04-01T05:48:54;5.40;;;2.28;;
64011;SDS011;50211;52.768;12.124;2023-04-01T05:51:19;5.85;;;2.10;;
64011;SDS011;50211;52.768;12.124;2023-04-01T05:53:45;8.47;;;3.10;;
64011;SDS011;50211;52.768;12.124;2023-04-01T05:56:11;6.70;;;2.50;;
64011;SDS011;50211;52.768;12.124;2023-04-01T05:58:36;6.07;;;2.30;;
64011;SDS011;50211;52.768;12.124;2023-04-01T06:01:03;2.60;;;2.00;;
64011;SDS011;50211;52.768;12.124;2023-04-01T06:03:30;4.07;;;2.30;;
64011;SDS011;50211;52.768;12.124;2023-04-01T06:05:56;8.73;;;2.37;;
64011;SDS011;50211;52.768;12.124;2023-04-01T06:08:21;5.78;;;2.40;;
64011;SDS011;50211;52.768;12.124;2023-04-01T06:19:03;6.43;;;2.90;;
64011;SDS011;50211;52.768;12.124;2023-04-01T06:27:22;6.18;;;2.65;;
64011;SDS011;50211;52.768;12.124;2023-04-01T06:44:14;8.70;;;3.17;;
64011;SDS011;50211;52.768;12.124;2023-04-01T06:46:52;6.10;;;2.80;;
64011;SDS011;50211;52.768;12.124;2023-04-01T06:49:28;5.63;;;2.90;;
64011;SDS011;50211;52.768;12.124;2023-04-01T06:54:48;5.88;;;3.65;;
64011;SDS011;50211;52.768;12.124;2023-04-01T06:57:28;6.53;;;3.30;;
64011;SDS011;50211;52.768;12.124;2023-04-01T07:00:02;5.15;;;2.83;;
64011;SDS011;50211;52.768;12.124;2023-04-01T07:02:45;8.43;;;3.20;;
64011;SDS011;50211;52.768;12.124;2023-04-01T07:05:20;10.98;;;3.38;;
64011;SDS011;50211;52.768;12.124;2023-04-01T07:07:48;6.20;;;2.30;;
64011;SDS011;50211;52.768;12.124;2023-04-01T07:13:11;4.68;;;2.72;;
64011;SDS011;50211;52.768;12.124;2023-04-01T07:15:42;7.82;;;2.55;;
64011;SDS011;50211;52.768;12.124;2023-04-01T07:18:12;7.30;;;2.65;;
64011;SDS011;50211;52.768;12.124;2023-04-01T07:20:43;4.65;;;2.30;;
64011;SDS011;50211;52.768;12.124;2023-04-01T07:23:16;8.38;;;2.60;;
64011;SDS011;50211;52.768;12.124;2023-04-01T07:25:51;8.93;;;2.38;;
64011;SDS011;50211;52.768;12.124;2023-04-01T07:28:20;5.60;;;2.08;;
64011;SDS011;50211;52.768;12.124;2023-04-01T07:38:59;2.92;;;1.88;;
64011;SDS011;50211;52.768;12.124;2023-04-01T07:44:13;2.83;;;1.85;;
64011;SDS011;50211;52.768;12.124;2023-04-01T07:47:09;3.08;;;1.65;;
64011;SDS011;50211;52.768;12.124;2023-04-01T07:49:45;4.55;;;1.40;;
64011;SDS011;50211;52.768;12.124;2023-04-01T07:52:17;0.73;;;0.63;;
64011;SDS011;50211;52.768;12.124;2023-04-01T07:54:58;2.75;;;0.93;;
64011;SDS011;50211;52.768;12.124;2023-04-01T07:57:39;0.93;;;0.83;;
64011;SDS011;50211;52.768;12.124;2023-04-01T08:00:19;1.07;;;0.83;;
64011;SDS011;50211;52.768;12.124;2023-04-01T08:05:47;1.77;;;1.10;;
64011;SDS011;50211;52.768;12.124;2023-04-01T08:08:32;2.57;;;1.20;;
64011;SDS011;50211;52.768;12.124;2023-04-01T08:11:16;2.20;;;1.10;;
64011;SDS011;50211;52.768;12.124;2023-04-01T08:14:03;3.33;;;1.60;;
64011;SDS011;50211;52.768;12.124;2023-04-01T08:16:54;1.90;;;1.33;;
64011;SDS011;50211;52.768;12.124;2023-04-01T08:19:35;2.90;;;1.60;;
64011;SDS011;50211;52.768;12.124;2023-04-01T08:22:20;6.50;;;1.77;;
64011;SDS011;50211;52.768;12.124;2023-04-01T08:25:09;2.93;;;1.60;;
64011;SDS011;50211;52.768;12.124;2023-04-01T08:28:34;2.83;;;1.67;;
64011;SDS011;50211;52.768;12.124;2023-04-01T08:31:00;3.27;;;2.10;;
64011;SDS011;50211;52.768;12.124;2023-04-01T08:33:31;5.93;;;2.00;;
64011;SDS011;50211;52.768;12.124;2023-04-01T08:35:59;4.77;;;2.37;;
64011;SDS011;50211;52.768;12.124;2023-04-01T08:43:39;9.43;;;2.23;;
64011;SDS011;50211;52.768;12.124;2023-04-01T08:46:41;2.80;;;2.03;;
64011;SDS011;50211;52.768;12.124;2023-04-01T09:08:50;4.43;;;2.10;;
64011;SDS011;50211;52.768;12.124;2023-04-01T09:16:52;5.80;;;2.40;;
64011;SDS011;50211;52.768;12.124;2023-04-01T09:22:22;3.67;;;1.90;;
64011;SDS011;50211;52.768;12.124;2023-04-01T09:39:13;3.57;;;1.77;;
64011;SDS011;50211;52.768;12.124;2023-04-01T09:41:55;3.13;;;1.80;;
64011;SDS011;50211;52.768;12.124;2023-04-01T09:44:36;2.00;;;1.43;;
64011;SDS011;50211;52.768;12.124;2023-04-01T09:53:00;2.77;;;1.50;;
64011;SDS011;50211;52.768;12.124;2023-04-01T10:01:39;4.10;;;1.53;;
64011;SDS011;50211;52.768;12.124;2023-04-01T10:04:23;3.60;;;1.40;;
64011;SDS011;50211;52.768;12.124;2023-04-01T10:07:09;2.30;;;1.40;;
64011;SDS011;50211;52.768;12.124;2023-04-01T10:15:52;2.50;;;1.50;;
64011;SDS011;50211;52.768;12.124;2023-04-01T10:21:22;2.10;;;1.30;;
64011;SDS011;50211;52.768;12.124;2023-04-01T10:24:13;1.07;;;0.90;;
64011;SDS011;50211;52.768;12.124;2023-04-01T10:32:11;1.77;;;1.10;;
64011;SDS011;50211;52.768;12.124;2023-04-01T10:40:43;2.47;;;1.10;;
64011;SDS011;50211;52.768;12.124;2023-04-01T10:49:20;1.60;;;1.10;;
64011;SDS011;50211;52.768;12.124;2023-04-01T10:57:55;2.17;;;1.20;;
64011;SDS011;50211;52.768;12.124;2023-04-01T11:00:40;1.97;;;1.20;;
64011;SDS011;50211;52.768;12.124;2023-04-01T11:11:25;3.67;;;2.30;;
64011;SDS011;50211;52.768;12.124;2023-04-01T11:22:58;4.07;;;1.87;;
64011;SDS011;50211;52.768;12.124;2023-04-01T11:28:26;2.37;;;1.70;;
64011;SDS011;50211;52.768;12.124;2023-04-01T11:39:24;1.30;;;1.20;;
64011;SDS011;50211;52.768;12.124;2023-04-01T11:44:26;1.27;;;0.97;;
64011;SDS011;50211;52.768;12.124;2023-04-01T11:52:37;2.87;;;0.77;;
64011;SDS011;50211;52.768;12.124;2023-04-01T12:09:37;1.27;;;0.80;;
64011;SDS011;50211;52.768;12.124;2023-04-01T12:21:49;1.27;;;0.93;;
64011;SDS011;50211;52.768;12.124;2023-04-01T12:32:37;1.03;;;0.83;;
64011;SDS011;50211;52.768;12.124;2023-04-01T12:35:19;1.37;;;0.80;;
64011;SDS011;50211;52.768;12.124;2023-04-01T12:38:02;0.77;;;0.77;;
64011;SDS011;50211;52.768;12.124;2023-04-01T12:41:08;1.57;;;0.90;;
64011;SDS011;50211;52.768;12.124;2023-04-01T13:00:11;1.37;;;1.20;;
64011;SDS011;50211;52.768;12.124;2023-04-01T13:03:02;0.90;;;0.60;;
64011;SDS011;50211;52.768;12.124;2023-04-01T13:11:20;1.90;;;1.10;;
64011;SDS011;50211;52.768;12.124;2023-04-01T13:16:57;2.07;;;0.90;;
64011;SDS011;50211;52.768;12.124;2023-04-01T13:19:50;1.30;;;1.00;;
64011;SDS011;50211;52.768;12.124;2023-04-01T13:22:41;1.57;;;1.10;;
64011;SDS011;50211;52.768;12.124;2023-04-01T13:25:23;1.90;;;1.13;;
64011;SDS011;50211;52.768;12.124;2023-04-01T13:30:59;1.67;;;0.73;;
64011;SDS011;50211;52.768;12.124;2023-04-01T13:33:46;1.20;;;0.80;;
64011;SDS011;50211;52.768;12.124;2023-04-01T13:36:32;2.47;;;0.90;;
64011;SDS011;50211;52.768;12.124;2023-04-01T13:39:15;0.67;;;0.63;;
64011;SDS011;50211;52.768;12.124;2023-04-01T13:42:05;1.27;;;0.93;;
64011;SDS011;50211;52.768;12.124;2023-04-01T13:48:48;1.10;;;0.90;;
64011;SDS011;50211;52.768;12.124;2023-04-01T13:50:57;1.50;;;0.90;;
64011;SDS011;50211;52.768;12.124;2023-04-01T13:53:33;1.27;;;0.73;;
64011;SDS011;50211;52.768;12.124;2023-04-01T13:56:29;2.43;;;0.83;;
64011;SDS011;50211;52.768;12.124;2023-04-01T13:59:05;3.20;;;0.90;;
64011;SDS011;50211;52.768;12.124;2023-04-01T14:01:40;1.00;;;0.90;;
64011;SDS011;50211;52.768;12.124;2023-04-01T14:06:56;1.33;;;1.13;;
64011;SDS011;50211;52.768;12.124;2023-04-01T14:23:02;5.70;;;5.10;;
64011;SDS011;50211;52.768;12.124;2023-04-01T14:25:59;2.80;;;2.10;;
64011;SDS011;50211;52.768;12.124;2023-04-01T14:31:39;3.50;;;3.03;;
64011;SDS011;50211;52.768;12.124;2023-04-01T14:40:19;42.90;;;9.47;;
64011;SDS011;50211;52.768;12.124;2023-04-01T14:42:58;124.53;;;27.27;;
64011;SDS011;50211;52.768;12.124;2023-04-01T14:45:44;99.93;;;24.80;;
64011;SDS011;50211;52.768;12.124;2023-04-01T14:48:30;23.43;;;11.77;;
64011;SDS011;50211;52.768;12.124;2023-04-01T14:51:16;8.17;;;7.33;;
64011;SDS011;50211;52.768;12.124;2023-04-01T14:56:39;273.27;;;61.30;;
64011;SDS011;50211;52.768;12.124;2023-04-01T15:07:35;21.43;;;16.50;;
64011;SDS011;50211;52.768;12.124;2023-04-01T15:15:59;82.67;;;23.03;;
64011;SDS011;50211;52.768;12.124;2023-04-01T15:18:48;140.40;;;31.90;;
64011;SDS011;50211;52.768;12.124;2023-04-01T15:24:39;66.60;;;15.50;;
64011;SDS011;50211;52.768;12.124;2023-04-01T15:27:17;86.53;;;31.73;;
64011;SDS011;50211;52.768;12.124;2023-04-01T15:32:49;136.67;;;34.57;;
64011;SDS011;50211;52.768;12.124;2023-04-01T15:35:24;42.20;;;11.30;;
64011;SDS011;50211;52.768;12.124;2023-04-01T15:38:08;99.23;;;26.23;;
64011;SDS011;50211;52.768;12.124;2023-04-01T15:43:42;30.57;;;10.20;;
64011;SDS011;50211;52.768;12.124;2023-04-01T15:46:29;26.97;;;8.90;;
64011;SDS011;50211;52.768;12.124;2023-04-01T15:54:48;70.07;;;34.17;;
64011;SDS011;50211;52.768;12.124;2023-04-01T16:00:49;157.40;;;30.93;;
64011;SDS011;50211;52.768;12.124;2023-04-01T16:03:37;145.97;;;33.13;;
64011;SDS011;50211;52.768;12.124;2023-04-01T16:09:04;18.40;;;9.70;;
64011;SDS011;50211;52.768;12.124;2023-04-01T16:14:14;2.83;;;2.30;;
64011;SDS011;50211;52.768;12.124;2023-04-01T16:20:18;4.77;;;2.67;;
64011;SDS011;50211;52.768;12.124;2023-04-01T16:26:15;3.40;;;1.67;;
64011;SDS011;50211;52.768;12.124;2023-04-01T16:29:27;2.03;;;1.67;;
64011;SDS011;50211;52.768;12.124;2023-04-01T16:31:52;5.43;;;1.80;;
64011;SDS011;50211;52.768;12.124;2023-04-01T16:34:29;1.63;;;1.20;;
64011;SDS011;50211;52.768;12.124;2023-04-01T16:39:54;4.00;;;1.97;;
64011;SDS011;50211;52.768;12.124;2023-04-01T16:45:25;9.27;;;2.10;;
64011;SDS011;50211;52.768;12.124;2023-04-01T16:48:15;60.57;;;15.07;;
64011;SDS011;50211;52.768;12.124;2023-04-01T16:51:14;3.00;;;1.87;;
64011;SDS011;50211;52.768;12.124;2023-04-01T16:53:42;11.83;;;3.83;;
64011;SDS011;50211;52.768;12.124;2023-04-01T16:56:11;18.17;;;6.60;;
64011;SDS011;50211;52.768;12.124;2023-04-01T17:01:20;3.20;;;2.10;;
64011;SDS011;50211;52.768;12.124;2023-04-01T17:03:52;3.87;;;1.97;;
64011;SDS011;50211;52.768;12.124;2023-04-01T17:14:59;6.50;;;3.00;;
64011;SDS011;50211;52.768;12.124;2023-04-01T17:17:51;7.70;;;2.57;;
64011;SDS011;50211;52.768;12.124;2023-04-01T17:23:23;6.27;;;2.10;;
64011;SDS011;50211;52.768;12.124;2023-04-01T17:26:20;7.90;;;2.40;;
64011;SDS011;50211;52.768;12.124;2023-04-01T17:29:13;4.63;;;2.17;;
64011;SDS011;50211;52.768;12.124;2023-04-01T17:40:51;3.60;;;2.23;;
64011;SDS011;50211;52.768;12.124;2023-04-01T17:43:38;4.27;;;2.43;;
64011;SDS011;50211;52.768;12.124;2023-04-01T17:46:27;3.47;;;2.33;;
64011;SDS011;50211;52.768;12.124;2023-04-01T18:00:26;3.80;;;2.60;;
64011;SDS011;50211;52.768;12.124;2023-04-01T18:06:17;2.77;;;2.10;;
64011;SDS011;50211;52.768;12.124;2023-04-01T18:08:58;3.77;;;2.07;;
64011;SDS011;50211;52.768;12.124;2023-04-01T18:11:39;7.53;;;2.43;;
64011;SDS011;50211;52.768;12.124;2023-04-01T18:17:18;8.23;;;3.27;;
64011;SDS011;50211;52.768;12.124;2023-04-01T18:20:34;6.03;;;2.90;;
64011;SDS011;50211;52.768;12.124;2023-04-01T18:22:45;6.83;;;2.73;;
64011;SDS011;50211;52.768;12.124;2023-04-01T18:25:22;3.60;;;2.40;;
64011;SDS011;50211;52.768;12.124;2023-04-01T18:28:14;3.17;;;1.97;;
64011;SDS011;50211;52.768;12.124;2023-04-01T18:30:54;7.47;;;3.00;;
64011;SDS011;50211;52.768;12.124;2023-04-01T18:33:44;6.13;;;2.73;;
64011;SDS011;50211;52.768;12.124;2023-04-01T18:36:33;6.77;;;2.80;;
64011;SDS011;50211;52.768;12.124;2023-04-01T18:39:11;9.50;;;3.87;;
64011;SDS011;50211;52.768;12.124;2023-04-01T18:44:55;5.27;;;2.80;;
64011;SDS011;50211;52.768;12.124;2023-04-01T18:52:46;7.87;;;4.07;;
64011;SDS011;50211;52.768;12.124;2023-04-01T18:55:18;11.17;;;4.63;;
64011;SDS011;50211;52.768;12.124;2023-04-01T18:57:52;9.30;;;5.27;;
64011;SDS011;50211;52.768;12.124;2023-04-01T19:00:22;17.40;;;5.60;;
64011;SDS011;50211;52.768;12.124;2023-04-01T19:05:36;7.63;;;3.80;;
64011;SDS011;50211;52.768;12.124;2023-04-01T19:16:58;9.03;;;4.27;;
64011;SDS011;50211;52.768;12.124;2023-04-01T19:22:20;5.87;;;3.70;;
64011;SDS011;50211;52.768;12.124;2023-04-01T19:25:09;7.77;;;2.80;;
64011;SDS011;50211;52.768;12.124;2023-04-01T19:28:07;7.13;;;2.63;;
64011;SDS011;50211;52.768;12.124;2023-04-01T19:30:54;5.67;;;3.40;;
64011;SDS011;50211;52.768;12.124;2023-04-01T19:33:33;5.23;;;3.20;;
64011;SDS011;50211;52.768;12.124;2023-04-01T19:36:10;6.73;;;2.90;;
64011;SDS011;50211;52.768;12.124;2023-04-01T19:44:29;8.27;;;3.10;;
64011;SDS011;50211;52.768;12.124;2023-04-01T19:54:57;8.37;;;3.13;;
64011;SDS011;50211;52.768;12.124;2023-04-01T19:57:54;7.97;;;3.20;;
64011;SDS011;50211;52.768;12.124;2023-04-01T20:00:40;3.93;;;2.33;;
64011;SDS011;50211;52.768;12.124;2023-04-01T20:03:19;4.23;;;2.30;;
64011;SDS011;50211;52.768;12.124;2023-04-01T20:06:18;5.90;;;3.23;;
64011;SDS011;50211;52.768;12.124;2023-04-01T20:11:52;9.10;;;3.50;;
64011;SDS011;50211;52.768;12.124;2023-04-01T20:14:51;12.13;;;3.00;;
64011;SDS011;50211;52.768;12.124;2023-04-01T20:17:23;11.27;;;4.20;;
64011;SDS011;50211;52.768;12.124;2023-04-01T20:20:03;3.17;;;2.60;;
64011;SDS011;50211;52.768;12.124;2023-04-01T20:27:59;8.87;;;2.87;;
64011;SDS011;50211;52.768;12.124;2023-04-01T20:36:16;9.27;;;3.37;;
64011;SDS011;50211;52.768;12.124;2023-04-01T20:39:00;2.07;;;1.80;;
64011;SDS011;50211;52.768;12.124;2023-04-01T20:42:12;3.10;;;2.60;;
64011;SDS011;50211;52.768;12.124;2023-04-01T20:45:08;5.60;;;2.13;;
64011;SDS011;50211;52.768;12.124;2023-04-01T20:47:48;6.43;;;2.50;;
64011;SDS011;50211;52.768;12.124;2023-04-01T20:50:41;3.33;;;1.97;;
64011;SDS011;50211;52.768;12.124;2023-04-01T20:53:20;3.20;;;2.40;;
64011;SDS011;50211;52.768;12.124;2023-04-01T21:06:44;4.47;;;1.73;;
64011;SDS011;50211;52.768;12.124;2023-04-01T21:09:27;2.23;;;1.80;;
64011;SDS011;50211;52.768;12.124;2023-04-01T21:15:37;5.07;;;1.50;;
64011;SDS011;50211;52.768;12.124;2023-04-01T21:18:28;3.57;;;1.50;;
64011;SDS011;50211;52.768;12.124;2023-04-01T21:27:00;5.70;;;2.03;;
64011;SDS011;50211;52.768;12.124;2023-04-01T21:32:21;2.13;;;1.50;;
64011;SDS011;50211;52.768;12.124;2023-04-01T21:43:12;2.80;;;1.43;;
64011;SDS011;50211;52.768;12.124;2023-04-01T21:48:46;4.30;;;1.73;;
64011;SDS011;50211;52.768;12.124;2023-04-01T21:51:56;3.27;;;1.90;;
64011;SDS011;50211;52.768;12.124;2023-04-01T21:54:55;2.53;;;1.50;;
64011;SDS011;50211;52.768;12.124;2023-04-01T21:57:42;3.13;;;1.53;;
64011;SDS011;50211;52.768;12.124;2023-04-01T22:03:26;4.83;;;2.20;;
64011;SDS011;50211;52.768;12.124;2023-04-01T22:11:34;2.43;;;1.57;;
64011;SDS011;50211;52.768;12.124;2023-04-01T22:14:22;3.27;;;1.50;;
64011;SDS011;50211;52.768;12.124;2023-04-01T22:16:57;3.83;;;1.40;;
64011;SDS011;50211;52.768;12.124;2023-04-01T22:19:31;3.03;;;1.53;;
64011;SDS011;50211;52.768;12.124;2023-04-01T22:22:19;2.77;;;1.40;;
64011;SDS011;50211;52.768;12.124;2023-04-01T22:25:07;5.67;;;1.50;;
64011;SDS011;50211;52.768;12.124;2023-04-01T22:27:58;4.17;;;1.50;;
64011;SDS011;50211;52.768;12.124;2023-04-01T22:30:45;2.90;;;1.53;;
64011;SDS011;50211;52.768;12.124;2023-04-01T22:33:29;9.53;;;1.70;;
64011;SDS011;50211;52.768;12.124;2023-04-01T22:36:15;3.03;;;1.47;;
64011;SDS011;50211;52.768;12.124;2023-04-01T22:39:06;1.40;;;1.07;;
64011;SDS011;50211;52.768;12.124;2023-04-01T22:41:47;2.90;;;1.70;;
64011;SDS011;50211;52.768;12.124;2023-04-01T22:44:30;3.73;;;1.77;;
64011;SDS011;50211;52.768;12.124;2023-04-01T22:47:12;3.77;;;1.80;;
64011;SDS011;50211;52.768;12.124;2023-04-01T22:50:04;3.23;;;1.37;;
64011;SDS011;50211;52.768;12.124;2023-04-01T22:52:43;3.13;;;1.43;;
64011;SDS011;50211;52.768;12.124;2023-04-01T22:55:25;3.63;;;1.63;;
64011;SDS011;50211;52.768;12.124;2023-04-01T23:00:53;2.33;;;1.37;;
64011;SDS011;50211;52.768;12.124;2023-04-01T23:03:22;4.73;;;1.50;;
64011;SDS011;50211;52.768;12.124;2023-04-01T23:06:00;4.77;;;1.50;;
64011;SDS011;50211;52.768;12.124;2023-04-01T23:08:51;3.80;;;1.70;;
64011;SDS011;50211;52.768;12.124;2023-04-01T23:11:25;5.97;;;1.33;;
64011;SDS011;50211;52.768;12.124;2023-04-01T23:16:46;2.27;;;0.87;;